UAE72T OMDB-EGKK
Flight info
| Callsign | UAE72T |
|---|---|
| Flight time | N/A |
| Altitude | 34000 |
| Route | ANVIX R401 GIDIS G783 VAVIM DCT DEBAV G652 TOKRA DCT MEDPO DCT SITUK M321 IVONU Z710 GAS G662 MODIV/N0497F360 G662 HIL T540 ENABI L550 NOVPA J981 DATOK L550 GENIV L324 LAKTO DCT OTHON DCT VAXOS DCT RDS UL609 MES DCT DISOR/N0484F380 DCT LONTA UL608 DOLEV DCT GORPA DCT MODSA DCT MAH DCT NOMBO DCT VIBOM DCT ULNOK DCT ADENU DCT LIRSU DCT ARCKY DCT SPI DCT DENUT L610 TEBRA |
| Aircraft | B77W/H-SDE1E2E3FGHIJ2J3J4J5M1RWXY/LB1D1 |
Departure
| Time | 2026-04-30 09:22 |
|---|---|
| Airport | Dubai International Airport (OMDB) |
Arrival
| Time | N/A |
|---|---|
| Airport | London Gatwick Airport (EGKK) |
| Time | Latitude | Longitude | Altitude | Speed | Heading |
|---|---|---|---|---|---|
| 2026-04-30 08:10 | 25.24554 | 55.36489 | 14 ft | 0 kts | 31° |
| 2026-04-30 09:04 | 25.24541 | 55.36480 | 14 ft | 4 kts | 32° |
| 2026-04-30 09:04 | 25.24518 | 55.36464 | 15 ft | 4 kts | 37° |
| 2026-04-30 09:05 | 25.24499 | 55.36444 | 14 ft | 4 kts | 63° |
| 2026-04-30 09:05 | 25.24497 | 55.36421 | 14 ft | 4 kts | 111° |
| 2026-04-30 09:05 | 25.24508 | 55.36395 | 14 ft | 4 kts | 123° |
| 2026-04-30 09:05 | 25.24512 | 55.36388 | 15 ft | 0 kts | 125° |
| 2026-04-30 09:09 | 25.24472 | 55.36459 | 14 ft | 15 kts | 118° |
| 2026-04-30 09:09 | 25.24447 | 55.36568 | 14 ft | 15 kts | 90° |
| 2026-04-30 09:09 | 25.24486 | 55.36666 | 14 ft | 15 kts | 33° |
| 2026-04-30 09:10 | 25.24576 | 55.36723 | 15 ft | 15 kts | 32° |
| 2026-04-30 09:10 | 25.24664 | 55.36784 | 14 ft | 15 kts | 32° |
| 2026-04-30 09:10 | 25.24733 | 55.36862 | 14 ft | 15 kts | 81° |
| 2026-04-30 09:10 | 25.24689 | 55.36965 | 14 ft | 15 kts | 122° |
| 2026-04-30 09:11 | 25.24633 | 55.37062 | 15 ft | 15 kts | 122° |
| 2026-04-30 09:11 | 25.24623 | 55.37079 | 15 ft | 0 kts | 122° |
| 2026-04-30 09:12 | 25.24621 | 55.37082 | 15 ft | 2 kts | 122° |
| 2026-04-30 09:12 | 25.24605 | 55.37110 | 15 ft | 7 kts | 122° |
| 2026-04-30 09:12 | 25.24567 | 55.37176 | 15 ft | 13 kts | 122° |
| 2026-04-30 09:12 | 25.24507 | 55.37280 | 15 ft | 18 kts | 122° |
| 2026-04-30 09:13 | 25.24446 | 55.37396 | 16 ft | 18 kts | 112° |
| 2026-04-30 09:13 | 25.24427 | 55.37529 | 16 ft | 18 kts | 92° |
| 2026-04-30 09:13 | 25.24401 | 55.37657 | 16 ft | 17 kts | 119° |
| 2026-04-30 09:13 | 25.24384 | 55.37734 | 16 ft | 4 kts | 52° |
| 2026-04-30 09:14 | 25.24388 | 55.37738 | 16 ft | 0 kts | 45° |
| 2026-04-30 09:14 | 25.24404 | 55.37755 | 16 ft | 14 kts | 42° |
| 2026-04-30 09:14 | 25.24516 | 55.37842 | 16 ft | 21 kts | 34° |
| 2026-04-30 09:14 | 25.24614 | 55.37917 | 16 ft | 15 kts | 45° |
| 2026-04-30 09:15 | 25.24602 | 55.38025 | 17 ft | 15 kts | 119° |
| 2026-04-30 09:15 | 25.24560 | 55.38121 | 17 ft | 9 kts | 89° |
| 2026-04-30 09:15 | 25.24572 | 55.38144 | 17 ft | 0 kts | 47° |
| 2026-04-30 09:19 | 25.24601 | 55.38172 | 18 ft | 16 kts | 36° |
| 2026-04-30 09:20 | 25.24692 | 55.38209 | 17 ft | 14 kts | 337° |
| 2026-04-30 09:20 | 25.24730 | 55.38162 | 17 ft | 0 kts | 302° |
| 2026-04-30 09:21 | 25.24754 | 55.38119 | 17 ft | 22 kts | 302° |
| 2026-04-30 09:21 | 25.24970 | 55.37735 | 15 ft | 95 kts | 302° |
| 2026-04-30 09:21 | 25.25432 | 55.36903 | 14 ft | 156 kts | 301° |
| 2026-04-30 09:21 | 25.26072 | 55.35737 | 91 ft | 193 kts | 301° |
| 2026-04-30 09:22 | 25.26773 | 55.34483 | 751 ft | 191 kts | 302° |
| 2026-04-30 09:22 | 25.27470 | 55.33222 | 1382 ft | 193 kts | 302° |
| 2026-04-30 09:22 | 25.28173 | 55.31957 | 1993 ft | 194 kts | 302° |
| 2026-04-30 09:22 | 25.28882 | 55.30683 | 2550 ft | 196 kts | 301° |
| 2026-04-30 09:23 | 25.29265 | 55.29265 | 3010 ft | 201 kts | 267° |
| 2026-04-30 09:23 | 25.28849 | 55.27781 | 3473 ft | 207 kts | 248° |
| 2026-04-30 09:23 | 25.28208 | 55.26260 | 3695 ft | 228 kts | 247° |
| 2026-04-30 09:23 | 25.27516 | 55.24635 | 4182 ft | 238 kts | 247° |
| 2026-04-30 09:24 | 25.26805 | 55.22971 | 4772 ft | 241 kts | 247° |
| 2026-04-30 09:24 | 25.26085 | 55.21290 | 5447 ft | 242 kts | 247° |
| 2026-04-30 09:24 | 25.25370 | 55.19614 | 6119 ft | 242 kts | 247° |
| 2026-04-30 09:24 | 25.24577 | 55.17973 | 6681 ft | 245 kts | 232° |
| 2026-04-30 09:25 | 25.23171 | 55.16862 | 7109 ft | 259 kts | 198° |
| 2026-04-30 09:25 | 25.21349 | 55.16716 | 7520 ft | 269 kts | 178° |
| 2026-04-30 09:25 | 25.19483 | 55.17031 | 7993 ft | 277 kts | 160° |
| 2026-04-30 09:25 | 25.17901 | 55.18287 | 8372 ft | 292 kts | 127° |
| 2026-04-30 09:26 | 25.16881 | 55.20273 | 8656 ft | 304 kts | 117° |
| 2026-04-30 09:26 | 25.15920 | 55.22386 | 9191 ft | 311 kts | 118° |
| 2026-04-30 09:26 | 25.14927 | 55.24504 | 9813 ft | 312 kts | 118° |
| 2026-04-30 09:26 | 25.13914 | 55.26638 | 10020 ft | 314 kts | 119° |
| 2026-04-30 09:27 | 25.12889 | 55.28781 | 9998 ft | 316 kts | 119° |
| 2026-04-30 09:27 | 25.11863 | 55.30912 | 10020 ft | 314 kts | 119° |
| 2026-04-30 09:27 | 25.10837 | 55.33047 | 10498 ft | 316 kts | 119° |
| 2026-04-30 09:27 | 25.09878 | 55.35232 | 11245 ft | 318 kts | 116° |
| 2026-04-30 09:28 | 25.08970 | 55.37479 | 12031 ft | 322 kts | 116° |
| 2026-04-30 09:28 | 25.08054 | 55.39741 | 12875 ft | 324 kts | 117° |
| 2026-04-30 09:28 | 25.07125 | 55.42027 | 13652 ft | 330 kts | 116° |
| 2026-04-30 09:28 | 25.06197 | 55.44405 | 14057 ft | 350 kts | 116° |
| 2026-04-30 09:29 | 25.05213 | 55.46978 | 14253 ft | 376 kts | 115° |